Arriba, Colorado
Current Conditions -  °F | °C
As of 12:55 AM on Friday 28 Nov 2014 (Local Time) from KLIC Reporting Station
Clear Clear  
Wind Chill: 34°   Ceiling: Unl
Heat Index: 34°   Visibility: 10mi
Dew Point: 18°   Wind: 3mph
Humidity: 52%   Direction: 350°N
Pressure: 30.07"   Gusts: NA
Location:  39.29°N, 103.28°W
Report Text: KLIC 280755Z AUTO 35003KT 10SM CLR 01/M08 A3007 RMK AO2 SLP150 T00111078
Loading
Personal Weather Stations






























Interactive Weather Map New forecast layout! Learn more

10-Day Weather Forecast

Advertisements
Track Severe Weather on mobile